Time;durP1;ratioP1;P1;durP2;ratioP2;P2;SDS_P1;SDS_P2;PMS_P1;PMS_P2;Temp;Humidity;BMP_temperature;BMP_pressure;BME280_temperature;BME280_humidity;BME280_pressure;Samples;Min_cycle;Max_cycle;Signal;HPM_P1;HPM_P2
2023/09/22 00:01:54;;;;;;;6.13;1.35;;;15.80;99.90;;;;;;7377581;19;20032;-73
2023/09/22 00:04:25;;;;;;;2.20;0.80;;;15.70;99.90;;;;;;7373699;19;20027;-74
2023/09/22 00:06:57;;;;;;;2.22;0.98;;;15.80;99.90;;;;;;7374675;19;20018;-75
2023/09/22 00:09:27;;;;;;;3.22;0.80;;;15.80;99.90;;;;;;7370607;19;20335;-74
2023/09/22 00:11:57;;;;;;;4.03;1.17;;;15.70;99.90;;;;;;7377580;19;20081;-74
2023/09/22 00:14:27;;;;;;;2.53;1.00;;;15.70;99.90;;;;;;7374058;19;20018;-74
2023/09/22 00:16:57;;;;;;;1.58;0.80;;;15.80;99.90;;;;;;7376087;19;20094;-73
2023/09/22 00:19:28;;;;;;;1.35;0.90;;;15.70;99.90;;;;;;7371094;19;20093;-74
2023/09/22 00:22:00;;;;;;;1.55;0.70;;;15.70;99.90;;;;;;7376672;19;20019;-74
2023/09/22 00:24:30;;;;;;;1.23;0.65;;;15.70;99.90;;;;;;7374557;19;20015;-74
2023/09/22 00:27:00;;;;;;;2.42;0.77;;;15.70;99.90;;;;;;7374986;19;20123;-74
2023/09/22 00:29:30;;;;;;;1.58;0.80;;;15.70;99.90;;;;;;7370348;19;20007;-74
2023/09/22 00:32:00;;;;;;;2.75;0.80;;;15.60;99.90;;;;;;7376941;19;20014;-74
2023/09/22 00:34:30;;;;;;;2.15;0.90;;;15.70;99.90;;;;;;7378963;19;20018;-74
2023/09/22 00:37:03;;;;;;;2.42;1.00;;;15.60;99.90;;;;;;7383044;19;20882;-74
2023/09/22 00:39:33;;;;;;;2.20;1.02;;;15.60;99.90;;;;;;7376733;19;20017;-74
2023/09/22 00:42:08;;;;;;;2.85;1.13;;;15.50;99.90;;;;;;7383553;19;20014;-75
2023/09/22 00:44:54;;;;;;;3.35;1.52;;;15.50;99.90;;;;;;7383341;19;20020;-74
2023/09/22 00:47:24;;;;;;;2.65;1.70;;;15.60;99.90;;;;;;7382491;19;20791;-74
2023/09/22 00:49:54;;;;;;;2.05;1.15;;;15.50;99.90;;;;;;7382511;19;20051;-74
2023/09/22 00:52:27;;;;;;;1.05;0.50;;;15.50;99.90;;;;;;7382644;19;20015;-75
2023/09/22 00:55:00;;;;;;;2.13;1.03;;;15.50;99.90;;;;;;7382674;19;20082;-73
2023/09/22 00:57:30;;;;;;;1.60;0.68;;;15.50;99.90;;;;;;7381467;19;20304;-73
2023/09/22 01:00:01;;;;;;;1.33;0.70;;;15.40;99.90;;;;;;7379877;19;20039;-73
2023/09/22 01:02:31;;;;;;;1.58;0.90;;;15.40;99.90;;;;;;7381807;19;20032;-73
2023/09/22 01:05:02;;;;;;;2.40;0.50;;;15.40;99.90;;;;;;7382670;19;20022;-73
2023/09/22 01:07:35;;;;;;;2.08;0.93;;;15.30;99.90;;;;;;7380559;19;20031;-73
2023/09/22 01:10:11;;;;;;;2.38;0.95;;;15.20;99.90;;;;;;7376383;19;20107;-73
2023/09/22 01:12:41;;;;;;;4.18;0.88;;;15.20;99.90;;;;;;7379859;19;20036;-74
2023/09/22 01:15:12;;;;;;;2.15;0.70;;;15.20;99.90;;;;;;7381107;19;20014;-73
2023/09/22 01:17:43;;;;;;;2.47;0.77;;;15.10;99.90;;;;;;7377636;19;20015;-73
2023/09/22 01:20:13;;;;;;;2.67;0.77;;;15.10;99.90;;;;;;7377591;19;20035;-71
2023/09/22 01:22:46;;;;;;;2.80;0.93;;;15.10;99.90;;;;;;7379651;19;20047;-71
2023/09/22 01:25:16;;;;;;;1.92;0.77;;;15.10;99.90;;;;;;7376519;19;20018;-73
2023/09/22 01:27:46;;;;;;;1.35;0.80;;;15.10;99.90;;;;;;7377438;19;20014;-72
2023/09/22 01:30:17;;;;;;;2.13;0.90;;;15.00;99.90;;;;;;7378351;19;20394;-72
2023/09/22 01:32:47;;;;;;;1.73;0.73;;;15.00;99.90;;;;;;7379022;19;20015;-72
2023/09/22 01:35:17;;;;;;;1.08;0.70;;;15.00;99.90;;;;;;7380211;19;20014;-72
2023/09/22 01:37:55;;;;;;;1.95;0.77;;;15.00;99.90;;;;;;7384975;19;20011;-72
2023/09/22 01:40:25;;;;;;;2.88;0.80;;;15.00;99.90;;;;;;7380645;19;20014;-72
2023/09/22 01:42:55;;;;;;;3.60;1.20;;;14.80;99.90;;;;;;7386382;19;20372;-72
2023/09/22 01:45:25;;;;;;;1.50;0.75;;;14.80;99.90;;;;;;7375864;19;20018;-73
2023/09/22 01:47:55;;;;;;;1.00;0.75;;;14.80;99.90;;;;;;7380448;19;20018;-73
2023/09/22 01:50:25;;;;;;;1.38;0.80;;;14.70;99.90;;;;;;7375254;19;20089;-73
2023/09/22 01:52:57;;;;;;;1.30;0.60;;;14.70;99.90;;;;;;7380673;19;20074;-73
2023/09/22 01:55:27;;;;;;;3.13;1.00;;;14.70;99.90;;;;;;7379723;19;20022;-73
2023/09/22 01:57:57;;;;;;;3.80;0.82;;;14.60;99.90;;;;;;7379365;19;20088;-73
2023/09/22 02:00:27;;;;;;;3.63;1.17;;;14.60;99.90;;;;;;7376815;19;20074;-73
2023/09/22 02:02:58;;;;;;;1.90;0.82;;;14.60;99.90;;;;;;7379559;19;20035;-73
2023/09/22 02:05:29;;;;;;;1.60;0.90;;;14.50;99.90;;;;;;7377282;19;20494;-73
2023/09/22 02:08:02;;;;;;;1.13;0.70;;;14.40;99.90;;;;;;7377734;19;20097;-73
2023/09/22 02:10:32;;;;;;;1.88;0.98;;;14.40;99.90;;;;;;7375525;19;20011;-73
2023/09/22 02:13:02;;;;;;;3.28;0.90;;;14.40;99.90;;;;;;7377766;19;20090;-73
2023/09/22 02:15:32;;;;;;;1.00;0.80;;;14.40;99.90;;;;;;7376398;19;20620;-74
2023/09/22 02:18:02;;;;;;;3.13;1.00;;;14.40;99.90;;;;;;7377042;19;20039;-73
2023/09/22 02:20:32;;;;;;;2.20;1.02;;;14.40;99.90;;;;;;7370708;19;20014;-73
2023/09/22 02:23:04;;;;;;;3.17;1.00;;;14.30;99.90;;;;;;7378578;19;20542;-73
2023/09/22 02:25:35;;;;;;;1.92;1.20;;;14.30;99.90;;;;;;7375133;19;20101;-72
2023/09/22 02:28:06;;;;;;;2.38;1.30;;;14.40;99.90;;;;;;7377335;19;20011;-73
2023/09/22 02:30:37;;;;;;;3.28;1.30;;;14.30;99.90;;;;;;7375832;19;20054;-72
2023/09/22 02:33:08;;;;;;;2.53;1.67;;;14.20;99.90;;;;;;7378586;19;20019;-72
2023/09/22 02:35:42;;;;;;;2.72;1.63;;;14.30;99.90;;;;;;7376595;19;20011;-72
2023/09/22 02:38:14;;;;;;;1.73;1.00;;;14.30;99.90;;;;;;7376385;19;20665;-72
2023/09/22 02:41:03;;;;;;;1.70;1.20;;;14.30;99.90;;;;;;7379508;19;20031;-72
2023/09/22 02:43:34;;;;;;;1.73;0.98;;;14.30;99.90;;;;;;7375156;19;20023;-72
2023/09/22 02:46:05;;;;;;;2.60;1.08;;;14.30;99.90;;;;;;7375538;19;20007;-73
2023/09/22 02:48:35;;;;;;;2.08;1.40;;;14.30;99.90;;;;;;7371865;19;21080;-72
2023/09/22 02:51:08;;;;;;;1.85;1.10;;;14.30;99.90;;;;;;7378193;19;20007;-73
2023/09/22 02:53:41;;;;;;;1.30;0.95;;;14.30;99.90;;;;;;7376140;19;20082;-72
2023/09/22 02:56:11;;;;;;;1.80;1.00;;;14.40;99.90;;;;;;7374732;19;20020;-74
2023/09/22 02:58:41;;;;;;;2.40;1.27;;;14.30;99.90;;;;;;7372088;19;20010;-72
2023/09/22 03:01:14;;;;;;;2.50;1.05;;;14.30;99.90;;;;;;7377609;19;20011;-71
2023/09/22 03:03:50;;;;;;;2.70;1.00;;;14.30;99.90;;;;;;7375907;19;20100;-71
2023/09/22 03:06:21;;;;;;;3.33;1.00;;;14.30;99.90;;;;;;7375880;19;20414;-73
2023/09/22 03:08:53;;;;;;;2.25;1.00;;;14.30;99.90;;;;;;7369650;19;20022;-71
2023/09/22 03:11:23;;;;;;;2.75;1.02;;;14.30;99.90;;;;;;7376990;19;20090;-72
2023/09/22 03:13:53;;;;;;;4.80;1.27;;;14.30;99.90;;;;;;7375850;19;20542;-71
2023/09/22 03:16:23;;;;;;;2.53;0.98;;;14.40;99.90;;;;;;7375434;19;20018;-72
2023/09/22 03:18:53;;;;;;;2.40;1.10;;;14.40;99.90;;;;;;7368184;19;20108;-71
2023/09/22 03:21:23;;;;;;;1.00;0.82;;;14.30;93.80;;;;;;7376810;19;20521;-72
2023/09/22 03:23:56;;;;;;;2.33;0.80;;;14.30;96.00;;;;;;7375398;19;20007;-71
2023/09/22 03:26:26;;;;;;;2.30;1.17;;;14.30;99.20;;;;;;7373323;19;20097;-71
2023/09/22 03:28:56;;;;;;;2.25;0.98;;;14.30;99.90;;;;;;7372243;19;20034;-71
2023/09/22 03:31:26;;;;;;;2.03;1.00;;;14.30;99.90;;;;;;7374415;19;20007;-73
2023/09/22 03:33:56;;;;;;;5.40;1.20;;;14.20;97.50;;;;;;7375852;19;20003;-72
2023/09/22 03:36:30;;;;;;;2.53;1.17;;;14.30;99.90;;;;;;7371289;19;20014;-71
2023/09/22 03:39:03;;;;;;;1.08;0.80;;;14.30;99.60;;;;;;7366838;19;20098;-71
2023/09/22 03:41:35;;;;;;;1.45;0.70;;;14.30;99.90;;;;;;7373587;19;20015;-72
2023/09/22 03:44:05;;;;;;;2.90;1.00;;;14.30;98.60;;;;;;7375369;19;20045;-71
2023/09/22 03:46:35;;;;;;;2.58;1.10;;;14.30;97.00;;;;;;7373237;19;20014;-71
2023/09/22 03:49:07;;;;;;;2.03;0.93;;;14.30;93.40;;;;;;7370419;19;20108;-72
2023/09/22 03:51:37;;;;;;;2.65;1.13;;;14.30;89.80;;;;;;7373976;19;20180;-71
2023/09/22 03:54:10;;;;;;;10.55;1.23;;;14.30;92.30;;;;;;7373546;19;20503;-71
2023/09/22 03:56:40;;;;;;;2.45;0.65;;;14.30;83.40;;;;;;7373312;19;20089;-72
2023/09/22 03:59:11;;;;;;;1.63;0.80;;;14.30;82.50;;;;;;7369829;19;20281;-71
2023/09/22 04:01:42;;;;;;;1.52;1.20;;;14.30;81.40;;;;;;7371868;19;20014;-71
2023/09/22 04:04:12;;;;;;;3.22;1.00;;;14.30;81.40;;;;;;7374721;19;20015;-71
2023/09/22 04:06:42;;;;;;;0.98;0.60;;;14.40;80.30;;;;;;7371781;19;20473;-71
2023/09/22 04:09:15;;;;;;;3.97;1.40;;;14.40;73.80;;;;;;7367961;19;20011;-71
2023/09/22 04:11:45;;;;;;;3.20;1.30;;;14.40;77.20;;;;;;7374622;19;20040;-71
2023/09/22 04:14:15;;;;;;;1.52;0.98;;;14.30;83.20;;;;;;7373574;19;20014;-72
2023/09/22 04:16:45;;;;;;;3.58;1.52;;;14.40;90.50;;;;;;7374252;19;20025;-71
2023/09/22 04:19:15;;;;;;;3.33;1.20;;;14.40;89.20;;;;;;7370089;19;20015;-71
2023/09/22 04:21:49;;;;;;;3.35;1.25;;;14.30;87.60;;;;;;7373649;19;20010;-71
2023/09/22 04:24:23;;;;;;;2.28;1.05;;;14.20;93.10;;;;;;7373967;19;20045;-71
2023/09/22 04:26:53;;;;;;;2.63;1.10;;;14.30;95.00;;;;;;7376644;19;20020;-71
2023/09/22 04:29:24;;;;;;;2.13;1.15;;;14.40;96.10;;;;;;7374781;19;20661;-71
2023/09/22 04:31:54;;;;;;;1.80;1.10;;;14.40;99.90;;;;;;7373688;19;20045;-71
2023/09/22 04:34:24;;;;;;;1.65;1.00;;;14.40;99.00;;;;;;7373813;19;20098;-71
2023/09/22 04:36:54;;;;;;;2.17;1.20;;;14.40;99.90;;;;;;7371518;19;20377;-71
2023/09/22 04:39:27;;;;;;;2.72;1.30;;;14.30;99.90;;;;;;7372383;19;20049;-72
2023/09/22 04:41:56;;;;;;;2.60;1.52;;;14.40;99.90;;;;;;7375574;19;20014;-72
2023/09/22 04:44:27;;;;;;;1.88;1.20;;;14.40;99.90;;;;;;7372841;19;20025;-72
2023/09/22 04:46:57;;;;;;;2.90;1.70;;;14.40;99.90;;;;;;7374616;19;20029;-72
2023/09/22 04:49:27;;;;;;;3.13;1.70;;;14.50;99.90;;;;;;7370975;19;20003;-71
2023/09/22 04:51:57;;;;;;;3.40;1.40;;;14.50;99.90;;;;;;7373716;19;20019;-72
2023/09/22 04:54:32;;;;;;;2.13;1.10;;;14.50;99.90;;;;;;7373622;19;20017;-72
2023/09/22 04:57:02;;;;;;;1.25;0.90;;;14.50;99.90;;;;;;7374106;19;20010;-71
2023/09/22 04:59:32;;;;;;;2.15;1.20;;;14.50;99.90;;;;;;7369708;19;20006;-72
2023/09/22 05:02:02;;;;;;;1.88;1.33;;;14.60;99.90;;;;;;7374863;19;20010;-72
2023/09/22 05:04:33;;;;;;;2.55;1.45;;;14.50;99.90;;;;;;7371326;19;20763;-72
2023/09/22 05:07:04;;;;;;;3.92;1.50;;;14.50;99.90;;;;;;7374458;19;20036;-72
2023/09/22 05:09:39;;;;;;;1.88;1.33;;;14.50;99.90;;;;;;7369255;19;20018;-72
2023/09/22 05:12:09;;;;;;;2.88;1.42;;;14.50;99.90;;;;;;7373470;19;21333;-71
2023/09/22 05:14:39;;;;;;;2.85;1.50;;;14.60;99.90;;;;;;7372413;19;20019;-72
2023/09/22 05:17:09;;;;;;;2.08;1.25;;;14.70;90.50;;;;;;7374672;19;20021;-72
2023/09/22 05:19:39;;;;;;;1.40;0.85;;;14.70;90.10;;;;;;7383357;19;20039;-73
2023/09/22 05:22:10;;;;;;;2.63;1.45;;;14.70;90.60;;;;;;7379708;19;20043;-72
2023/09/22 05:24:43;;;;;;;4.07;1.45;;;14.60;94.10;;;;;;7378043;19;20023;-71
2023/09/22 05:27:13;;;;;;;1.63;1.30;;;14.60;97.40;;;;;;7380226;19;20014;-72
2023/09/22 05:29:43;;;;;;;2.15;1.30;;;14.60;98.10;;;;;;7375527;19;20010;-72
2023/09/22 05:32:13;;;;;;;3.00;1.23;;;14.60;99.90;;;;;;7379059;19;20010;-72
2023/09/22 05:34:43;;;;;;;3.40;1.58;;;14.60;99.90;;;;;;7377682;19;20006;-71
2023/09/22 05:37:13;;;;;;;3.25;1.70;;;14.60;99.90;;;;;;7378571;19;20635;-72
2023/09/22 05:39:46;;;;;;;6.68;2.03;;;14.60;99.90;;;;;;7375316;19;20018;-72
2023/09/22 05:42:16;;;;;;;4.97;1.73;;;14.60;99.90;;;;;;7379068;19;20014;-72
2023/09/22 05:44:46;;;;;;;3.42;2.03;;;14.60;99.90;;;;;;7376981;19;20011;-72
2023/09/22 05:47:18;;;;;;;4.38;2.55;;;14.60;99.90;;;;;;7377884;19;20046;-72
2023/09/22 05:49:49;;;;;;;5.15;1.73;;;14.70;99.90;;;;;;7374406;19;20018;-72
2023/09/22 05:52:20;;;;;;;3.22;1.40;;;14.70;99.20;;;;;;7378672;19;20508;-72
2023/09/22 05:54:53;;;;;;;6.10;1.77;;;14.70;95.90;;;;;;7374979;19;20424;-73
2023/09/22 05:57:23;;;;;;;3.35;1.60;;;14.80;94.90;;;;;;7379562;19;20043;-72
2023/09/22 05:59:53;;;;;;;5.25;1.85;;;14.70;90.10;;;;;;7374669;19;20014;-72
2023/09/22 06:02:23;;;;;;;5.13;1.80;;;14.80;88.70;;;;;;7378349;19;20002;-72
2023/09/22 06:04:55;;;;;;;4.13;1.63;;;14.80;85.80;;;;;;7375771;19;20481;-72
2023/09/22 06:07:25;;;;;;;2.90;1.45;;;14.80;90.90;;;;;;7378082;19;20021;-72
2023/09/22 06:09:58;;;;;;;5.70;1.42;;;14.80;85.70;;;;;;7373802;19;20022;-72
2023/09/22 06:12:29;;;;;;;3.08;1.30;;;14.90;75.50;;;;;;7377910;19;20014;-72
2023/09/22 06:14:59;;;;;;;4.80;1.38;;;14.80;57.80;;;;;;7375470;19;20082;-72
2023/09/22 06:17:30;;;;;;;1.88;1.08;;;14.90;62.70;;;;;;7378641;19;20106;-72
2023/09/22 06:20:07;;;;;;;3.55;1.10;;;15.00;54.50;;;;;;7376467;19;20041;-72
2023/09/22 06:22:37;;;;;;;2.40;1.40;;;15.00;55.50;;;;;;7376611;19;20016;-72
2023/09/22 06:25:13;;;;;;;4.40;1.17;;;14.90;60.20;;;;;;7378587;19;21113;-74
2023/09/22 06:27:44;;;;;;;3.58;1.40;;;14.90;65.30;;;;;;7374697;19;20035;-72
2023/09/22 06:30:19;;;;;;;2.05;1.20;;;14.90;64.10;;;;;;7374619;19;20733;-72
2023/09/22 06:32:49;;;;;;;3.30;1.20;;;14.90;74.60;;;;;;7374522;19;20479;-72
2023/09/22 06:35:20;;;;;;;1.40;1.00;;;15.00;69.30;;;;;;7376922;19;20006;-73
2023/09/22 06:37:50;;;;;;;3.15;1.00;;;15.00;62.30;;;;;;7375146;19;20039;-72
2023/09/22 06:40:23;;;;;;;4.20;1.45;;;14.90;65.40;;;;;;7373641;19;20015;-71
2023/09/22 06:42:53;;;;;;;3.30;1.15;;;15.00;69.10;;;;;;7376162;19;20382;-72
2023/09/22 06:45:26;;;;;;;2.05;1.13;;;14.80;56.60;;;;;;7376088;19;20014;-74
2023/09/22 06:47:56;;;;;;;3.78;1.20;;;14.90;61.60;;;;;;7375788;19;20014;-71
2023/09/22 06:50:27;;;;;;;2.47;1.30;;;15.00;70.90;;;;;;7375387;19;21077;-71
2023/09/22 06:52:58;;;;;;;2.53;1.10;;;15.00;70.90;;;;;;7374172;19;20015;-73
2023/09/22 06:55:31;;;;;;;7.18;0.90;;;15.00;44.00;;;;;;7375101;19;20045;-72
2023/09/22 06:58:01;;;;;;;4.68;1.30;;;15.20;46.20;;;;;;7375837;19;20031;-72
2023/09/22 07:00:32;;;;;;;3.97;1.38;;;15.30;48.40;;;;;;7375345;19;20465;-72
2023/09/22 07:03:02;;;;;;;1.92;1.08;;;15.30;53.50;;;;;;7375245;19;20551;-72
2023/09/22 07:05:32;;;;;;;1.48;1.25;;;15.40;59.30;;;;;;7375332;19;20114;-73
2023/09/22 07:08:03;;;;;;;2.10;1.40;;;15.40;42.90;;;;;;7376607;19;20035;-73
2023/09/22 07:10:36;;;;;;;5.03;1.75;;;15.40;40.30;;;;;;7376404;19;20022;-71
2023/09/22 07:13:06;;;;;;;4.00;1.25;;;15.40;44.60;;;;;;7384283;19;20070;-72
2023/09/22 07:15:36;;;;;;;3.40;1.20;;;15.40;28.10;;;;;;7378838;19;20039;-71
2023/09/22 07:18:07;;;;;;;2.42;1.40;;;15.50;29.10;;;;;;7375445;19;20056;-71
2023/09/22 07:20:37;;;;;;;2.53;1.13;;;15.60;30.00;;;;;;7374898;19;20018;-71
2023/09/22 07:23:07;;;;;;;2.88;1.77;;;15.50;32.30;;;;;;7376395;19;20612;-72
2023/09/22 07:25:40;;;;;;;1.60;1.20;;;15.50;27.80;;;;;;7374039;19;20015;-71
2023/09/22 07:28:11;;;;;;;3.50;1.10;;;15.50;30.00;;;;;;7374886;19;20101;-72
2023/09/22 07:30:42;;;;;;;3.10;1.45;;;15.50;34.50;;;;;;7374120;19;20014;-73
2023/09/22 07:33:12;;;;;;;2.67;1.48;;;15.60;34.20;;;;;;7375800;19;20681;-73
2023/09/22 07:35:42;;;;;;;2.10;1.50;;;15.60;29.00;;;;;;7374220;19;20050;-73
2023/09/22 07:38:15;;;;;;;5.50;1.30;;;15.60;35.20;;;;;;7373449;19;20014;-72
2023/09/22 07:40:49;;;;;;;4.28;1.27;;;15.60;33.40;;;;;;7374423;19;20015;-72
2023/09/22 07:43:19;;;;;;;4.20;1.42;;;15.70;37.60;;;;;;7375665;19;20031;-71
2023/09/22 07:45:51;;;;;;;3.47;1.60;;;15.70;37.60;;;;;;7373569;19;20014;-71
2023/09/22 07:48:21;;;;;;;2.40;1.67;;;15.80;35.00;;;;;;7374130;19;20014;-72
2023/09/22 07:50:52;;;;;;;3.63;1.60;;;15.80;28.00;;;;;;7374344;19;20219;-72
2023/09/22 07:53:25;;;;;;;4.03;1.48;;;15.80;26.80;;;;;;7372821;19;20387;-72
2023/09/22 07:55:59;;;;;;;2.97;1.27;;;15.90;26.40;;;;;;7373169;19;20006;-71
2023/09/22 07:58:30;;;;;;;2.95;1.20;;;15.90;25.20;;;;;;7370396;19;20014;-73
2023/09/22 08:01:06;;;;;;;2.58;1.17;;;15.70;32.00;;;;;;7372303;19;20750;-72
2023/09/22 08:03:38;;;;;;;4.10;1.75;;;15.50;36.90;;;;;;7374885;19;20090;-73
2023/09/22 08:06:08;;;;;;;2.97;1.63;;;15.60;43.80;;;;;;7374053;19;20021;-72
2023/09/22 08:08:38;;;;;;;2.83;2.17;;;15.60;34.70;;;;;;7370896;19;20085;-71
2023/09/22 08:11:11;;;;;;;2.33;1.67;;;15.60;29.00;;;;;;7373002;19;20615;-72
2023/09/22 08:13:41;;;;;;;4.65;1.73;;;15.60;35.10;;;;;;7373563;19;20027;-72
2023/09/22 08:16:11;;;;;;;4.18;1.83;;;15.70;31.50;;;;;;7373822;19;20027;-72
2023/09/22 08:18:41;;;;;;;2.40;1.52;;;15.70;22.10;;;;;;7370237;19;20047;-72
2023/09/22 08:21:12;;;;;;;8.45;1.50;;;15.70;27.10;;;;;;7374785;19;20021;-71
2023/09/22 08:23:42;;;;;;;2.13;1.17;;;15.70;22.80;;;;;;7372892;19;20047;-72
2023/09/22 08:26:23;;;;;;;2.85;1.42;;;15.90;24.50;;;;;;7373296;19;20011;-73
2023/09/22 08:28:53;;;;;;;3.80;1.70;;;15.90;26.70;;;;;;7370642;19;20025;-73
2023/09/22 08:31:23;;;;;;;6.45;1.98;;;16.10;19.00;;;;;;7374392;19;20118;-73
2023/09/22 08:33:53;;;;;;;2.85;1.65;;;16.20;18.00;;;;;;7372744;19;20007;-72
2023/09/22 08:36:23;;;;;;;5.22;1.60;;;16.40;12.90;;;;;;7373096;19;20019;-72
2023/09/22 08:38:53;;;;;;;4.78;2.08;;;16.70;6.90;;;;;;7369368;19;20014;-71
2023/09/22 08:41:26;;;;;;;2.08;1.40;;;16.70;2.40;;;;;;7374318;19;20013;-71
2023/09/22 08:43:57;;;;;;;3.95;1.55;;;16.70;1.10;;;;;;7369896;19;20089;-72
2023/09/22 08:46:27;;;;;;;4.97;1.27;;;16.80;1.00;;;;;;7372397;19;20398;-73
2023/09/22 08:48:57;;;;;;;5.35;1.75;;;16.90;1.00;;;;;;7369041;19;20108;-71
2023/09/22 08:51:28;;;;;;;2.65;1.00;;;16.90;1.00;;;;;;7373390;19;20467;-72
2023/09/22 08:53:58;;;;;;;2.90;0.90;;;16.80;1.00;;;;;;7369911;19;20113;-72
2023/09/22 08:56:34;;;;;;;2.40;1.08;;;16.70;1.00;;;;;;7377378;19;20007;-72
2023/09/22 08:59:04;;;;;;;1.77;0.80;;;16.70;1.00;;;;;;7376164;19;20129;-72
2023/09/22 09:01:34;;;;;;;2.45;0.80;;;16.80;1.00;;;;;;7380535;19;20502;-72
2023/09/22 09:04:31;;;;;;;5.07;1.15;;;16.70;1.00;;;;;;7389357;19;20014;-72
2023/09/22 09:07:02;;;;;;;5.82;1.17;;;16.70;1.00;;;;;;7376890;19;20483;-72
2023/09/22 09:09:43;;;;;;;2.17;0.90;;;16.80;1.00;;;;;;7375665;19;20006;-71
2023/09/22 09:12:17;;;;;;;1.25;0.70;;;16.90;1.00;;;;;;7378382;19;20085;-70
2023/09/22 09:14:49;;;;;;;3.85;1.40;;;16.90;1.00;;;;;;7377185;19;20474;-72
2023/09/22 09:17:22;;;;;;;1.55;0.80;;;16.90;1.00;;;;;;7378989;19;20025;-72
2023/09/22 09:19:57;;;;;;;2.83;1.00;;;16.80;1.00;;;;;;7373685;19;20089;-71
2023/09/22 09:22:35;;;;;;;;;;;16.50;1.00;;;;;;7379894;19;20011;-72
2023/09/22 09:25:09;;;;;;;1.92;1.30;;;16.60;1.00;;;;;;7378859;19;19918;-72
2023/09/22 09:27:43;;;;;;;1.25;0.82;;;16.70;1.00;;;;;;7376037;19;20010;-72
2023/09/22 09:30:15;;;;;;;1.90;1.00;;;16.80;1.00;;;;;;7377472;19;20007;-73
2023/09/22 09:32:45;;;;;;;2.60;0.95;;;16.80;1.00;;;;;;7378473;19;20010;-73
2023/09/22 09:35:30;;;;;;;1.60;0.80;;;16.90;1.00;;;;;;7375896;19;20015;-71
2023/09/22 09:38:22;;;;;;;3.30;0.82;;;16.70;1.00;;;;;;7373330;19;20103;-72
2023/09/22 09:40:54;;;;;;;2.30;0.70;;;17.00;1.00;;;;;;7377150;19;20020;-71
2023/09/22 09:43:27;;;;;;;3.13;1.33;;;17.20;1.00;;;;;;7376045;19;20089;-71
2023/09/22 09:45:59;;;;;;;3.72;1.20;;;17.10;1.00;;;;;;7375513;19;20101;-72
2023/09/22 09:48:30;;;;;;;3.95;0.90;;;17.00;1.00;;;;;;7374485;19;21290;-72
2023/09/22 09:51:01;;;;;;;2.35;0.93;;;16.90;1.00;;;;;;7377908;19;20018;-71
2023/09/22 09:53:40;;;;;;;3.70;1.30;;;17.10;1.00;;;;;;7378369;19;20018;-73
2023/09/22 09:56:10;;;;;;;3.35;0.98;;;17.30;1.00;;;;;;7377707;19;20503;-72
2023/09/22 09:58:45;;;;;;;3.45;1.23;;;17.60;1.00;;;;;;7376528;19;20027;-72
2023/09/22 10:01:18;;;;;;;4.28;1.10;;;17.60;1.00;;;;;;7380541;19;20376;-72
2023/09/22 10:03:49;;;;;;;2.08;1.00;;;17.80;1.00;;;;;;7377159;19;20018;-72
2023/09/22 10:06:21;;;;;;;4.00;1.17;;;17.50;1.00;;;;;;7373197;19;20010;-72
2023/09/22 10:08:51;;;;;;;1.65;0.70;;;17.50;1.00;;;;;;7373810;19;20010;-72
2023/09/22 10:11:21;;;;;;;3.38;1.15;;;17.80;1.00;;;;;;7378088;19;20103;-72
2023/09/22 10:13:54;;;;;;;5.43;0.98;;;18.20;1.00;;;;;;7374965;19;20111;-71
2023/09/22 10:16:32;;;;;;;2.28;0.80;;;19.20;1.00;;;;;;7376330;19;20007;-72
2023/09/22 10:19:02;;;;;;;2.40;0.90;;;19.10;1.00;;;;;;7372503;19;20015;-71
2023/09/22 10:21:39;;;;;;;1.60;0.82;;;19.30;1.00;;;;;;7377611;19;20512;-72
2023/09/22 10:24:26;;;;;;;2.80;0.70;;;19.20;1.00;;;;;;7376867;19;20072;-72
2023/09/22 10:27:09;;;;;;;1.50;0.70;;;19.40;1.00;;;;;;7375891;19;20854;-72
2023/09/22 10:29:51;;;;;;;1.10;0.60;;;18.90;1.00;;;;;;7368641;19;20021;-73
2023/09/22 10:32:26;;;;;;;0.52;0.40;;;18.70;1.00;;;;;;7374828;19;20011;-72
2023/09/22 10:35:01;;;;;;;0.95;0.40;;;18.70;1.00;;;;;;7374526;19;20010;-72
2023/09/22 10:37:34;;;;;;;;;;;18.70;1.00;;;;;;7377467;19;20010;-72
2023/09/22 10:40:12;;;;;;;1.73;0.70;;;18.80;1.00;;;;;;7373090;19;19935;-73
2023/09/22 10:42:46;;;;;;;0.95;0.50;;;18.90;1.00;;;;;;7375711;19;20011;-71
2023/09/22 10:45:21;;;;;;;1.42;0.50;;;19.10;1.00;;;;;;7375185;19;20010;-72
2023/09/22 10:47:51;;;;;;;;;;;19.00;1.00;;;;;;7375364;19;20039;-73
2023/09/22 10:50:24;;;;;;;1.40;0.60;;;19.10;1.00;;;;;;7374150;19;20501;-71
2023/09/22 10:52:57;;;;;;;1.38;0.60;;;19.20;1.00;;;;;;7373566;19;20014;-72
2023/09/22 10:55:29;;;;;;;2.58;0.55;;;19.30;1.00;;;;;;7374013;19;20018;-72
2023/09/22 10:57:59;;;;;;;1.27;0.75;;;19.40;1.00;;;;;;7371517;19;20015;-71
2023/09/22 11:00:35;;;;;;;0.90;0.50;;;19.60;1.00;;;;;;7373893;19;20006;-71
2023/09/22 11:03:04;;;;;;;1.13;0.40;;;19.60;1.00;;;;;;7373309;19;20026;-73
2023/09/22 11:05:35;;;;;;;0.98;0.60;;;19.70;1.00;;;;;;7374294;19;20019;-71
2023/09/22 11:08:13;;;;;;;2.03;0.50;;;19.90;1.00;;;;;;7372788;19;20015;-72
2023/09/22 11:10:45;;;;;;;0.88;0.50;;;19.90;1.00;;;;;;7373106;19;20144;-72
2023/09/22 11:13:16;;;;;;;3.15;0.55;;;19.80;1.00;;;;;;7371027;19;20036;-72
2023/09/22 11:15:56;;;;;;;0.65;0.40;;;20.00;1.00;;;;;;7372714;19;20371;-72
2023/09/22 11:18:29;;;;;;;1.33;0.50;;;19.80;1.00;;;;;;7367131;19;20026;-72
2023/09/22 11:21:00;;;;;;;1.95;0.70;;;19.60;1.00;;;;;;7372749;19;20090;-72
2023/09/22 11:23:31;;;;;;;0.90;0.43;;;19.70;1.00;;;;;;7374276;19;20010;-72
2023/09/22 11:26:02;;;;;;;2.05;0.70;;;19.70;1.00;;;;;;7372459;19;20011;-72
2023/09/22 11:28:33;;;;;;;0.77;0.55;;;19.60;1.00;;;;;;7371982;19;20100;-73
2023/09/22 11:31:16;;;;;;;1.10;0.63;;;19.40;1.00;;;;;;7373419;19;20022;-72
2023/09/22 11:33:47;;;;;;;4.00;0.47;;;19.60;1.00;;;;;;7372972;19;20014;-72
2023/09/22 11:36:18;;;;;;;0.60;0.40;;;19.50;1.00;;;;;;7371367;19;21015;-72
2023/09/22 11:38:55;;;;;;;0.95;0.50;;;19.60;1.00;;;;;;7370392;19;20450;-72
2023/09/22 11:41:26;;;;;;;1.30;0.40;;;20.00;1.00;;;;;;7373917;19;20090;-72
2023/09/22 11:43:55;;;;;;;1.10;0.50;;;20.40;1.00;;;;;;7373957;19;20023;-73
2023/09/22 11:46:31;;;;;;;1.65;0.60;;;20.20;1.00;;;;;;7374018;19;20351;-72
2023/09/22 11:49:02;;;;;;;1.00;0.40;;;20.10;1.00;;;;;;7369821;19;20082;-72
2023/09/22 11:51:50;;;;;;;0.98;0.50;;;20.50;1.00;;;;;;7372426;19;20018;-72
2023/09/22 11:54:23;;;;;;;0.88;0.60;;;20.80;1.00;;;;;;7368589;19;20017;-72
2023/09/22 11:56:55;;;;;;;1.15;0.50;;;20.90;1.00;;;;;;7370805;19;20577;-71
2023/09/22 11:59:27;;;;;;;3.95;0.60;;;21.10;1.00;;;;;;7369836;19;21217;-72
2023/09/22 12:02:01;;;;;;;1.52;0.60;;;21.40;1.00;;;;;;7372322;19;20634;-71
2023/09/22 12:04:37;;;;;;;1.02;0.43;;;21.50;1.00;;;;;;7369921;19;20048;-71
2023/09/22 12:07:09;;;;;;;1.27;0.60;;;21.60;1.00;;;;;;7374373;19;20022;-71
2023/09/22 12:09:40;;;;;;;2.05;0.70;;;21.60;1.00;;;;;;7368396;19;20041;-71
2023/09/22 12:12:10;;;;;;;1.08;0.60;;;21.40;1.00;;;;;;7372985;19;20565;-71
2023/09/22 12:14:40;;;;;;;1.08;0.70;;;21.10;1.00;;;;;;7371510;19;20015;-72
2023/09/22 12:17:13;;;;;;;4.15;0.70;;;21.40;1.00;;;;;;7373915;19;20015;-71
2023/09/22 12:19:43;;;;;;;1.58;0.70;;;21.30;1.00;;;;;;7369581;19;20025;-72
2023/09/22 12:22:13;;;;;;;1.40;0.50;;;21.50;1.00;;;;;;7373315;19;20025;-72
2023/09/22 12:24:43;;;;;;;1.33;0.63;;;20.90;1.00;;;;;;7370917;19;20006;-72
2023/09/22 12:27:13;;;;;;;1.67;0.52;;;20.70;1.00;;;;;;7372510;19;20021;-71
2023/09/22 12:29:43;;;;;;;1.83;0.52;;;20.90;1.00;;;;;;7366917;19;20687;-71
2023/09/22 12:32:15;;;;;;;2.20;0.73;;;20.70;1.00;;;;;;7371009;19;21241;-71
2023/09/22 12:34:46;;;;;;;2.05;0.55;;;20.70;1.00;;;;;;7367670;19;20799;-72
2023/09/22 12:37:16;;;;;;;1.92;0.80;;;20.90;1.00;;;;;;7371013;19;20007;-70
2023/09/22 12:39:47;;;;;;;1.17;0.50;;;20.80;1.00;;;;;;7365802;19;20007;-71
2023/09/22 12:42:17;;;;;;;1.00;0.70;;;20.50;1.00;;;;;;7371974;19;20075;-70
2023/09/22 12:44:48;;;;;;;1.02;0.50;;;20.60;1.00;;;;;;7373263;19;20025;-70
2023/09/22 12:47:20;;;;;;;3.22;0.50;;;20.80;1.00;;;;;;7373414;19;20017;-71
2023/09/22 12:49:52;;;;;;;1.17;0.65;;;21.00;1.00;;;;;;7367982;19;20089;-71
2023/09/22 12:52:22;;;;;;;10.50;0.88;;;21.00;1.00;;;;;;7368872;19;20019;-71
2023/09/22 12:54:52;;;;;;;1.52;0.60;;;21.40;1.00;;;;;;7369484;19;20039;-71
2023/09/22 12:57:22;;;;;;;2.30;0.70;;;21.40;1.00;;;;;;7371074;19;20044;-70
2023/09/22 12:59:52;;;;;;;3.53;0.70;;;21.30;1.00;;;;;;7365895;19;20035;-71
2023/09/22 13:02:25;;;;;;;3.25;1.20;;;21.20;1.00;;;;;;7368648;19;20015;-71
2023/09/22 13:04:55;;;;;;;5.93;2.28;;;21.40;1.00;;;;;;7365644;19;20014;-71
2023/09/22 13:07:26;;;;;;;1.52;0.70;;;21.30;1.00;;;;;;7371343;19;20014;-71
2023/09/22 13:09:57;;;;;;;3.30;0.68;;;21.00;1.00;;;;;;7366858;19;20010;-71
2023/09/22 13:12:27;;;;;;;2.83;1.38;;;20.90;1.00;;;;;;7371241;19;20014;-72
2023/09/22 13:14:57;;;;;;;2.13;1.10;;;20.40;1.00;;;;;;7367583;19;20027;-73